Flight Briefing for CPX221

Departure Arrival
Sacramento International Airport (KSMF)
Click to view FAA NOTAMS
March Air Reserve Base (KRIV)
Click to view FAA NOTAMS
Departure Time Arrival Time
N/A N/A
Aircraft Distance
B767-300BDSF 362nm
Departure METAR Arrival METAR
KSMF 232153Z VRB05KT 10SM FEW050 25/11 A2978 RMK AO2 SLP084 T02500111 KRIV 232243Z AUTO 20006KT 10SM OVC026 14/12 A3000 RMK AO2 SLP157
Suggested Route
FTHIL2 FRA EHF J65 PMD MARCH4


View recent IFR Routes data
Notes



Charts and Procedures

Charts for KSMF
No chart available
Charts for KRIV
No chart available

Windy.com Weather Map